Hawthorne, California
Current Conditions -  °F | °C
As of 8:53 AM on Tuesday 27 Jan 2015 (Local Time) from KHHR Reporting Station
Clear Clear  
Wind Chill: 65°   Ceiling: Unl
Heat Index: 65°   Visibility: 9mi
Dew Point: 55°   Wind: 0mph
Humidity: 70%   Direction: NA
Pressure: 30.2"   Gusts: NA
Location:  33.92°N, 118.35°W
Report Text: KHHR 271653Z 00000KT 9SM CLR 18/13 A3020 RMK AO2 SLP226 T01830128
Loading
Personal Weather Stations






























Interactive Weather Map New forecast layout! Learn more

10-Day Weather Forecast

Advertisements
Track Severe Weather on mobile